NORTHEAST SUFFOLK  -  Special Weather Statement Special Weather Statement        NORTHERN NASSAU  -  Special Weather Statement Special Weather Statement        NORTHWEST SUFFOLK  -  Special Weather Statement Special Weather Statement        SOUTHEAST SUFFOLK  -  Special Weather Statement Special Weather Statement        SOUTHERN NASSAU  -  Special Weather Statement Special Weather Statement        SOUTHWEST SUFFOLK  -  Special Weather Statement Special Weather Statement      

Active alerts

Northern Nassau
  Details for Northern Nassau Special Weather Statement
Southern Nassau
  Details for Southern Nassau Special Weather Statement
Northwest Suffolk
  Details for Northwest Suffolk Special Weather Statement
Southwest Suffolk
  Details for Southwest Suffolk Special Weather Statement
Northeast Suffolk
  Details for Northeast Suffolk Special Weather Statement
Southeast Suffolk
  Details for Southeast Suffolk Special Weather Statement


WXM80 ListenWXM80 Stop

You find our weather info also at:

UK Metoffice

WeatherCloud

Weather Underground

Northeastern Weather Network

AWEKAS

Citizen Weather Observer Program (CWOP)

HAMweather, WeatherForYou, PWS Weather


Weather Underground History page Text

Daily Summary for April 1, 2016 Units:  English    Metric   Both
« Previous Day
Next Day »
Daily Weekly Monthly Yearly Custom
  High: Low: Average:
Temperature: 70.3 °F 56.2 °F 61.5 °F
Dew Point: 63.8 °F 48.7 °F 58.4 °F
Humidity: 97 % 73 % 90 %
Wind Speed: 13.5 mph 0.0 mph 5.7 mph
Wind Gust: 21.9 mph - -
Wind:- - SSW
Pressure: 29.76 in 29.45 in -
Precipitation: 0.03 in    
Historical Graphs
 
 
Tabular Data for April 1, 2016
Time Temperature Dew Point Pressure Wind Wind Speed Wind Gust Humidity Rainfall Rate (Hourly)
00:03 60.6 °F 58.3 °F 29.76 in South 7.9 mph 18.0 mph 92 % 0.00 in
00:08 60.6 °F 58.3 °F 29.76 in SW 7.5 mph 20.7 mph 92 % 0.00 in
00:13 60.6 °F 58.3 °F 29.76 in South 11.6 mph 17.0 mph 92 % 0.00 in
00:18 60.6 °F 58.3 °F 29.76 in South 10.5 mph 16.0 mph 92 % 0.00 in
00:23 60.6 °F 58.3 °F 29.76 in SSE 8.7 mph 11.0 mph 92 % 0.00 in
00:28 60.6 °F 58.3 °F 29.76 in SSW 12.7 mph 21.9 mph 92 % 0.00 in
00:34 60.7 °F 58.4 °F 29.76 in SW 7.1 mph 11.5 mph 92 % 0.00 in
00:39 60.7 °F 58.7 °F 29.76 in SW 10.3 mph 20.7 mph 93 % 0.00 in
00:44 60.9 °F 58.9 °F 29.75 in SSW 10.6 mph 15.0 mph 93 % 0.00 in
00:49 60.9 °F 58.9 °F 29.75 in SW 13.5 mph 19.0 mph 93 % 0.00 in
00:54 61.1 °F 59.1 °F 29.75 in SSW 5.9 mph 11.5 mph 93 % 0.00 in
00:59 61.1 °F 59.1 °F 29.75 in South 5.2 mph 11.5 mph 93 % 0.00 in
01:04 61.0 °F 59.0 °F 29.75 in SSW 8.0 mph 18.4 mph 93 % 0.00 in
01:09 60.9 °F 58.9 °F 29.75 in SSE 10.4 mph 18.0 mph 93 % 0.00 in
01:14 60.8 °F 58.8 °F 29.75 in South 7.4 mph 19.6 mph 93 % 0.00 in
01:19 60.7 °F 58.7 °F 29.75 in SSW 10.4 mph 12.7 mph 93 % 0.00 in
01:25 60.6 °F 58.6 °F 29.74 in South 9.4 mph 17.3 mph 93 % 0.00 in
01:30 60.5 °F 58.5 °F 29.74 in South 12.9 mph 21.9 mph 93 % 0.00 in
01:35 60.6 °F 58.6 °F 29.74 in SSE 6.7 mph 17.3 mph 93 % 0.00 in
01:40 60.6 °F 58.6 °F 29.74 in SSW 8.2 mph 11.5 mph 93 % 0.00 in
01:45 60.5 °F 58.5 °F 29.73 in SSW 8.7 mph 12.7 mph 93 % 0.00 in
01:50 60.5 °F 58.5 °F 29.73 in SSW 9.7 mph 17.3 mph 93 % 0.00 in
01:55 60.4 °F 58.4 °F 29.73 in SSW 9.2 mph 16.0 mph 93 % 0.00 in
02:00 60.4 °F 58.4 °F 29.72 in South 8.9 mph 16.1 mph 93 % 0.00 in
02:05 60.4 °F 58.4 °F 29.72 in SSW 7.6 mph 14.0 mph 93 % 0.00 in
02:10 60.4 °F 58.4 °F 29.72 in WSW 9.5 mph 15.0 mph 93 % 0.00 in
02:16 60.4 °F 58.4 °F 29.72 in SW 7.8 mph 17.3 mph 93 % 0.00 in
02:21 60.4 °F 58.7 °F 29.72 in SW 11.6 mph 20.7 mph 94 % 0.00 in
02:26 60.5 °F 58.8 °F 29.71 in SSW 6.5 mph 10.4 mph 94 % 0.00 in
02:31 60.5 °F 58.8 °F 29.70 in SSW 6.2 mph 17.3 mph 94 % 0.00 in
02:36 60.5 °F 58.8 °F 29.70 in SW 6.5 mph 10.4 mph 94 % 0.00 in
02:41 60.5 °F 58.5 °F 29.70 in SSW 8.8 mph 18.0 mph 93 % 0.00 in
02:46 60.4 °F 58.4 °F 29.70 in South 7.5 mph 13.8 mph 93 % 0.00 in
02:51 60.2 °F 58.2 °F 29.70 in South 8.1 mph 10.4 mph 93 % 0.00 in
02:56 60.0 °F 58.0 °F 29.70 in SSW 7.9 mph 9.2 mph 93 % 0.00 in
03:01 59.8 °F 57.8 °F 29.70 in South 6.8 mph 11.5 mph 93 % 0.00 in
03:07 59.7 °F 57.7 °F 29.70 in South 9.1 mph 12.0 mph 93 % 0.00 in
03:12 59.5 °F 57.5 °F 29.70 in SSW 6.0 mph 17.3 mph 93 % 0.00 in
03:17 59.3 °F 57.3 °F 29.70 in South 7.4 mph 13.8 mph 93 % 0.00 in
03:22 59.1 °F 57.1 °F 29.70 in SSE 8.2 mph 13.8 mph 93 % 0.00 in
03:27 59.0 °F 57.0 °F 29.70 in WSW 5.6 mph 10.0 mph 93 % 0.00 in
03:32 58.8 °F 56.8 °F 29.71 in SSW 10.1 mph 18.4 mph 93 % 0.00 in
03:37 58.6 °F 56.6 °F 29.71 in SSW 5.9 mph 12.0 mph 93 % 0.00 in
03:42 58.5 °F 56.5 °F 29.71 in South 6.0 mph 11.5 mph 93 % 0.00 in
03:47 58.5 °F 56.5 °F 29.71 in SSW 7.9 mph 9.2 mph 93 % 0.00 in
03:52 58.4 °F 56.4 °F 29.71 in SSW 7.1 mph 11.5 mph 93 % 0.00 in
03:58 58.4 °F 56.7 °F 29.71 in SSE 6.3 mph 13.8 mph 94 % 0.00 in
04:03 58.3 °F 56.6 °F 29.71 in South 7.2 mph 12.7 mph 94 % 0.00 in
04:08 58.3 °F 56.6 °F 29.70 in SSW 4.9 mph 6.9 mph 94 % 0.00 in
04:13 58.3 °F 56.6 °F 29.70 in SSW 4.8 mph 9.2 mph 94 % 0.00 in
04:18 58.3 °F 56.6 °F 29.70 in South 9.6 mph 11.5 mph 94 % 0.00 in
04:23 58.3 °F 56.6 °F 29.70 in South 4.0 mph 10.4 mph 94 % 0.00 in
04:28 58.3 °F 56.6 °F 29.70 in SSW 5.5 mph 8.1 mph 94 % 0.00 in
04:33 58.3 °F 56.6 °F 29.71 in SSW 4.5 mph 9.2 mph 94 % 0.00 in
04:38 58.3 °F 56.6 °F 29.70 in SSW 4.2 mph 7.0 mph 94 % 0.00 in
04:43 58.2 °F 56.5 °F 29.70 in SSW 6.1 mph 8.1 mph 94 % 0.00 in
04:49 58.2 °F 56.5 °F 29.70 in South 7.0 mph 10.0 mph 94 % 0.00 in
04:54 58.1 °F 56.4 °F 29.70 in South 4.1 mph 9.2 mph 94 % 0.00 in
04:59 58.1 °F 56.4 °F 29.69 in South 3.0 mph 9.2 mph 94 % 0.00 in
05:04 58.1 °F 56.4 °F 29.69 in SSW 3.9 mph 6.9 mph 94 % 0.00 in
05:09 58.1 °F 56.4 °F 29.69 in SSW 7.0 mph 11.5 mph 94 % 0.00 in
05:14 58.2 °F 56.5 °F 29.69 in SW 4.7 mph 8.0 mph 94 % 0.00 in
05:19 58.2 °F 56.5 °F 29.69 in SW 6.4 mph 11.5 mph 94 % 0.00 in
05:24 58.2 °F 56.5 °F 29.68 in South 2.7 mph 5.0 mph 94 % 0.00 in
05:29 58.3 °F 56.6 °F 29.68 in South 4.7 mph 9.2 mph 94 % 0.00 in
05:34 58.4 °F 57.0 °F 29.68 in SSW 3.7 mph 7.0 mph 95 % 0.00 in
05:40 58.4 °F 57.0 °F 29.68 in SSW 4.1 mph 6.0 mph 95 % 0.00 in
05:45 58.5 °F 57.1 °F 29.67 in South 3.1 mph 6.9 mph 95 % 0.00 in
05:50 58.6 °F 57.2 °F 29.68 in SSW 3.6 mph 8.1 mph 95 % 0.00 in
05:55 58.6 °F 57.2 °F 29.68 in SSW 5.3 mph 7.0 mph 95 % 0.00 in
06:00 58.6 °F 56.9 °F 29.67 in South 3.2 mph 6.9 mph 94 % 0.00 in
06:05 58.6 °F 56.9 °F 29.67 in SSW 3.5 mph 7.0 mph 94 % 0.00 in
06:10 58.6 °F 56.9 °F 29.66 in SSW 3.0 mph 5.8 mph 94 % 0.00 in
06:15 58.6 °F 56.9 °F 29.66 in SSW 2.3 mph 6.9 mph 94 % 0.00 in
06:20 58.5 °F 56.8 °F 29.66 in SW 2.9 mph 5.8 mph 94 % 0.00 in
06:25 58.5 °F 56.8 °F 29.65 in SSW 4.7 mph 8.1 mph 94 % 0.00 in
06:31 58.5 °F 56.8 °F 29.65 in SW 2.3 mph 5.0 mph 94 % 0.00 in
06:36 58.5 °F 57.1 °F 29.65 in SSW 2.8 mph 9.2 mph 95 % 0.00 in
06:41 58.6 °F 57.2 °F 29.65 in South 3.1 mph 5.8 mph 95 % 0.00 in
06:46 58.6 °F 57.2 °F 29.65 in SSW 3.4 mph 5.8 mph 95 % 0.00 in
06:51 58.7 °F 57.3 °F 29.65 in SSW 5.2 mph 9.2 mph 95 % 0.00 in
06:56 58.7 °F 57.3 °F 29.65 in SSW 2.7 mph 5.8 mph 95 % 0.00 in
07:01 58.7 °F 57.3 °F 29.65 in South 2.9 mph 5.8 mph 95 % 0.00 in
07:11 58.7 °F 57.3 °F 29.65 in SW 1.1 mph 6.9 mph 95 % 0.00 in
07:16 58.6 °F 57.2 °F 29.65 in South 5.7 mph 9.2 mph 95 % 0.00 in
07:22 58.5 °F 57.1 °F 29.65 in South 5.7 mph 11.5 mph 95 % 0.00 in
07:27 58.4 °F 57.0 °F 29.65 in SSE 4.4 mph 8.1 mph 95 % 0.00 in
07:32 58.3 °F 56.9 °F 29.65 in SSW 3.5 mph 6.9 mph 95 % 0.00 in
07:37 58.2 °F 56.8 °F 29.65 in South 6.7 mph 8.1 mph 95 % 0.00 in
07:47 58.2 °F 56.8 °F 29.64 in South 5.4 mph 9.2 mph 95 % 0.01 in
07:52 58.2 °F 57.1 °F 29.64 in South 3.6 mph 10.4 mph 96 % 0.01 in
07:57 58.2 °F 57.1 °F 29.64 in South 3.1 mph 5.8 mph 96 % 0.01 in
08:02 58.2 °F 57.1 °F 29.64 in SSW 5.5 mph 8.1 mph 96 % 0.01 in
08:08 58.2 °F 57.1 °F 29.64 in SSW 4.9 mph 7.0 mph 96 % 0.01 in
08:13 58.1 °F 57.0 °F 29.64 in SSW 5.0 mph 8.1 mph 96 % 0.01 in
08:18 58.1 °F 57.0 °F 29.64 in South 5.1 mph 9.2 mph 96 % 0.01 in
08:23 58.0 °F 56.9 °F 29.64 in SSW 4.7 mph 8.1 mph 96 % 0.01 in
08:28 57.9 °F 56.8 °F 29.64 in South 3.5 mph 6.0 mph 96 % 0.01 in
08:33 57.8 °F 56.7 °F 29.64 in South 6.0 mph 10.4 mph 96 % 0.01 in
08:38 57.7 °F 56.6 °F 29.63 in SSW 5.7 mph 8.1 mph 96 % 0.02 in
08:43 57.6 °F 56.5 °F 29.62 in SE 6.1 mph 11.5 mph 96 % 0.02 in
08:48 57.6 °F 56.5 °F 29.62 in South 3.6 mph 7.0 mph 96 % 0.01 in
08:53 57.7 °F 56.6 °F 29.62 in SSW 4.4 mph 8.1 mph 96 % 0.01 in
08:59 57.8 °F 56.7 °F 29.63 in SSW 3.6 mph 10.4 mph 96 % 0.01 in
09:04 57.8 °F 56.7 °F 29.63 in South 5.6 mph 10.0 mph 96 % 0.01 in
09:09 58.0 °F 56.9 °F 29.62 in SSW 6.4 mph 10.4 mph 96 % 0.01 in
09:14 58.2 °F 57.4 °F 29.63 in South 6.1 mph 10.4 mph 97 % 0.01 in
09:19 58.4 °F 57.6 °F 29.62 in South 5.4 mph 10.4 mph 97 % 0.01 in
09:24 58.5 °F 57.7 °F 29.62 in SSW 6.9 mph 13.0 mph 97 % 0.01 in
09:29 58.6 °F 57.8 °F 29.62 in SSW 5.2 mph 9.2 mph 97 % 0.01 in
09:34 58.6 °F 57.8 °F 29.60 in SW 5.8 mph 11.0 mph 97 % 0.01 in
09:39 58.6 °F 57.8 °F 29.61 in SSW 4.9 mph 9.0 mph 97 % 0.00 in
09:44 58.7 °F 57.9 °F 29.61 in SSE 5.6 mph 7.0 mph 97 % 0.00 in
09:50 58.9 °F 58.1 °F 29.61 in SSW 6.6 mph 11.5 mph 97 % 0.00 in
09:55 59.1 °F 58.2 °F 29.61 in SSW 4.7 mph 11.5 mph 97 % 0.00 in
10:00 59.3 °F 58.4 °F 29.61 in South 6.2 mph 11.5 mph 97 % 0.00 in
10:05 59.4 °F 58.5 °F 29.60 in SSW 6.9 mph 12.0 mph 97 % 0.00 in
10:10 59.6 °F 58.7 °F 29.60 in SSW 5.3 mph 11.0 mph 97 % 0.00 in
10:15 59.7 °F 58.6 °F 29.60 in South 5.4 mph 10.4 mph 96 % 0.00 in
10:20 59.8 °F 58.7 °F 29.61 in SSW 6.8 mph 11.0 mph 96 % 0.00 in
10:25 59.9 °F 58.8 °F 29.60 in South 6.3 mph 12.7 mph 96 % 0.00 in
10:30 60.1 °F 59.0 °F 29.60 in SSW 5.3 mph 12.7 mph 96 % 0.00 in
10:35 60.3 °F 59.2 °F 29.60 in SSW 7.8 mph 11.5 mph 96 % 0.00 in
10:41 60.3 °F 59.2 °F 29.59 in South 6.8 mph 12.7 mph 96 % 0.00 in
10:46 60.3 °F 59.2 °F 29.59 in SSW 6.5 mph 12.7 mph 96 % 0.00 in
10:51 60.4 °F 59.3 °F 29.59 in SSW 5.3 mph 9.0 mph 96 % 0.00 in
10:56 60.5 °F 59.4 °F 29.59 in SW 8.3 mph 13.8 mph 96 % 0.00 in
11:01 60.7 °F 59.3 °F 29.59 in South 7.1 mph 11.5 mph 95 % 0.00 in
11:06 60.9 °F 59.5 °F 29.59 in South 7.9 mph 12.7 mph 95 % 0.00 in
11:11 61.0 °F 59.6 °F 29.59 in SSW 5.9 mph 9.2 mph 95 % 0.00 in
11:16 61.0 °F 59.6 °F 29.60 in SSE 5.6 mph 11.5 mph 95 % 0.00 in
11:21 61.0 °F 59.3 °F 29.60 in SSW 7.0 mph 11.5 mph 94 % 0.00 in
11:26 61.1 °F 59.4 °F 29.60 in SSE 6.8 mph 9.2 mph 94 % 0.00 in
11:32 61.1 °F 59.4 °F 29.59 in South 5.9 mph 11.5 mph 94 % 0.00 in
11:37 61.2 °F 59.5 °F 29.58 in SSW 8.4 mph 12.7 mph 94 % 0.00 in
11:42 61.2 °F 59.2 °F 29.59 in SSW 7.8 mph 11.5 mph 93 % 0.00 in
11:47 61.0 °F 59.0 °F 29.60 in SSE 7.7 mph 12.7 mph 93 % 0.00 in
11:52 60.8 °F 58.5 °F 29.59 in SSW 9.9 mph 13.8 mph 92 % 0.00 in
11:57 60.6 °F 58.6 °F 29.59 in South 6.9 mph 9.2 mph 93 % 0.00 in
12:02 60.5 °F 58.5 °F 29.59 in SSW 7.4 mph 11.5 mph 93 % 0.00 in
12:07 60.3 °F 58.3 °F 29.58 in SW 7.8 mph 15.0 mph 93 % 0.00 in
12:12 60.3 °F 58.3 °F 29.58 in SSW 6.6 mph 11.5 mph 93 % 0.00 in
12:17 60.3 °F 58.3 °F 29.58 in SSW 6.1 mph 10.4 mph 93 % 0.00 in
12:23 60.3 °F 58.3 °F 29.57 in SSW 5.8 mph 7.0 mph 93 % 0.00 in
12:28 60.4 °F 58.4 °F 29.57 in South 4.4 mph 10.4 mph 93 % 0.00 in
12:33 60.4 °F 58.4 °F 29.57 in SW 7.0 mph 13.8 mph 93 % 0.00 in
12:38 60.4 °F 58.4 °F 29.57 in SSW 5.6 mph 9.2 mph 93 % 0.00 in
12:43 60.5 °F 58.8 °F 29.57 in SW 5.2 mph 6.9 mph 94 % 0.00 in
12:48 60.7 °F 59.0 °F 29.56 in SW 5.5 mph 11.5 mph 94 % 0.00 in
12:53 61.0 °F 59.6 °F 29.55 in SW 5.5 mph 13.0 mph 95 % 0.00 in
12:58 61.4 °F 60.0 °F 29.54 in SSE 4.4 mph 6.9 mph 95 % 0.00 in
13:03 61.9 °F 60.5 °F 29.54 in SSW 2.7 mph 6.9 mph 95 % 0.00 in
13:08 62.3 °F 60.8 °F 29.53 in SSW 3.9 mph 7.0 mph 95 % 0.00 in
13:14 62.8 °F 61.3 °F 29.52 in SW 6.2 mph 11.5 mph 95 % 0.00 in
13:19 63.4 °F 61.6 °F 29.52 in SW 4.1 mph 7.0 mph 94 % 0.00 in
13:24 64.1 °F 62.3 °F 29.52 in SSW 5.7 mph 8.1 mph 94 % 0.00 in
13:29 64.6 °F 62.5 °F 29.52 in West 4.3 mph 10.4 mph 93 % 0.00 in
13:34 65.1 °F 62.7 °F 29.52 in SSW 4.2 mph 6.0 mph 92 % 0.00 in
13:39 65.6 °F 62.6 °F 29.52 in SW 3.4 mph 5.8 mph 90 % 0.00 in
13:44 66.1 °F 63.1 °F 29.52 in SW 4.2 mph 8.1 mph 90 % 0.00 in
13:49 66.7 °F 63.4 °F 29.52 in South 4.3 mph 6.0 mph 89 % 0.00 in
13:54 67.3 °F 63.6 °F 29.52 in SSW 4.5 mph 8.1 mph 88 % 0.00 in
13:59 67.8 °F 63.5 °F 29.52 in SSW 4.3 mph 9.2 mph 86 % 0.00 in
14:05 68.3 °F 63.6 °F 29.52 in South 3.3 mph 6.0 mph 85 % 0.00 in
14:10 68.8 °F 63.4 °F 29.51 in South 2.9 mph 9.2 mph 83 % 0.00 in
14:15 69.2 °F 63.8 °F 29.52 in SSW 8.1 mph 13.8 mph 83 % 0.00 in
14:20 69.5 °F 63.4 °F 29.52 in SSW 5.6 mph 11.5 mph 81 % 0.00 in
14:25 69.5 °F 63.1 °F 29.51 in SSE 5.4 mph 8.1 mph 80 % 0.00 in
14:30 68.6 °F 61.5 °F 29.51 in South 5.9 mph 8.1 mph 78 % 0.00 in
14:35 67.1 °F 60.4 °F 29.51 in SSE 4.5 mph 6.9 mph 79 % 0.00 in
14:40 66.8 °F 60.8 °F 29.50 in SSW 5.4 mph 17.3 mph 81 % 0.00 in
14:45 66.8 °F 60.4 °F 29.50 in South 4.3 mph 10.4 mph 80 % 0.00 in
14:50 67.2 °F 61.2 °F 29.50 in South 7.4 mph 10.4 mph 81 % 0.00 in
14:56 67.7 °F 61.7 °F 29.49 in SSW 8.1 mph 9.2 mph 81 % 0.00 in
15:06 68.7 °F 61.6 °F 29.49 in South 7.3 mph 15.0 mph 78 % 0.00 in
15:11 69.0 °F 61.5 °F 29.49 in SSW 6.4 mph 10.4 mph 77 % 0.00 in
15:16 69.3 °F 61.8 °F 29.49 in South 5.0 mph 12.7 mph 77 % 0.00 in
15:21 69.6 °F 62.1 °F 29.49 in SSW 1.7 mph 5.0 mph 77 % 0.00 in
15:26 69.8 °F 61.9 °F 29.48 in South 7.5 mph 11.5 mph 76 % 0.00 in
15:31 69.8 °F 61.5 °F 29.48 in SSW 6.0 mph 9.2 mph 75 % 0.00 in
15:36 69.8 °F 61.5 °F 29.47 in South 8.0 mph 12.7 mph 75 % 0.00 in
15:41 69.9 °F 62.0 °F 29.47 in South 7.0 mph 11.0 mph 76 % 0.00 in
15:47 70.1 °F 61.8 °F 29.47 in SSW 3.0 mph 13.8 mph 75 % 0.00 in
15:52 70.3 °F 62.0 °F 29.47 in SSW 3.1 mph 7.0 mph 75 % 0.00 in
15:57 70.2 °F 61.1 °F 29.47 in South 6.3 mph 11.5 mph 73 % 0.00 in
16:02 69.7 °F 61.0 °F 29.46 in South 4.0 mph 10.4 mph 74 % 0.00 in
16:07 69.3 °F 61.0 °F 29.46 in South 4.9 mph 7.0 mph 75 % 0.00 in
16:12 69.2 °F 61.3 °F 29.46 in SSW 4.4 mph 7.0 mph 76 % 0.00 in
16:17 69.4 °F 61.5 °F 29.46 in SSE 4.4 mph 9.0 mph 76 % 0.00 in
16:22 69.3 °F 60.7 °F 29.46 in SE 8.2 mph 15.0 mph 74 % 0.00 in
16:27 68.6 °F 60.4 °F 29.46 in South 5.8 mph 18.4 mph 75 % 0.00 in
16:32 68.1 °F 60.6 °F 29.45 in South 7.2 mph 10.4 mph 77 % 0.00 in
16:38 68.1 °F 61.0 °F 29.45 in South 6.0 mph 10.4 mph 78 % 0.00 in
16:43 68.2 °F 61.1 °F 29.46 in South 6.9 mph 12.7 mph 78 % 0.00 in
16:48 68.4 °F 61.3 °F 29.46 in SSW 7.3 mph 12.7 mph 78 % 0.00 in
16:53 68.5 °F 61.0 °F 29.46 in SSE 6.8 mph 10.4 mph 77 % 0.00 in
16:58 68.5 °F 61.4 °F 29.46 in South 7.5 mph 11.5 mph 78 % 0.00 in
17:03 68.3 °F 60.8 °F 29.45 in SE 6.3 mph 12.7 mph 77 % 0.01 in
17:08 68.2 °F 61.1 °F 29.45 in SSW 5.4 mph 11.5 mph 78 % 0.01 in
17:13 68.1 °F 61.0 °F 29.45 in South 9.2 mph 18.4 mph 78 % 0.01 in
17:18 67.9 °F 60.8 °F 29.45 in South 6.5 mph 11.5 mph 78 % 0.01 in
17:23 67.7 °F 61.0 °F 29.46 in SSE 8.3 mph 9.0 mph 79 % 0.01 in
17:29 67.5 °F 60.8 °F 29.45 in SSW 4.6 mph 6.9 mph 79 % 0.01 in
17:39 67.2 °F 60.5 °F 29.46 in South 7.8 mph 13.8 mph 79 % 0.01 in
17:44 66.9 °F 60.5 °F 29.46 in SSW 6.0 mph 10.4 mph 80 % 0.01 in
17:49 66.7 °F 60.3 °F 29.46 in South 5.3 mph 8.1 mph 80 % 0.01 in
17:54 66.5 °F 60.5 °F 29.47 in South 8.8 mph 15.0 mph 81 % 0.01 in
17:59 66.1 °F 60.1 °F 29.48 in South 6.9 mph 14.0 mph 81 % 0.00 in
18:04 65.8 °F 60.2 °F 29.48 in SSE 5.5 mph 10.0 mph 82 % 0.00 in
18:09 65.6 °F 60.0 °F 29.48 in South 4.8 mph 8.0 mph 82 % 0.00 in
18:14 65.3 °F 59.7 °F 29.49 in South 5.1 mph 11.5 mph 82 % 0.00 in
18:25 64.6 °F 59.0 °F 29.47 in South 4.6 mph 11.5 mph 82 % 0.00 in
18:30 64.1 °F 58.8 °F 29.47 in South 4.9 mph 10.4 mph 83 % 0.00 in
18:35 63.8 °F 58.5 °F 29.47 in South 4.5 mph 11.0 mph 83 % 0.00 in
18:40 63.4 °F 58.5 °F 29.47 in SSW 5.9 mph 12.0 mph 84 % 0.00 in
18:45 63.1 °F 58.5 °F 29.47 in South 6.5 mph 10.4 mph 85 % 0.00 in
18:50 62.9 °F 58.3 °F 29.46 in SSE 7.5 mph 12.7 mph 85 % 0.00 in
18:55 62.6 °F 58.4 °F 29.46 in South 6.3 mph 11.5 mph 86 % 0.00 in
19:00 62.4 °F 58.2 °F 29.47 in South 5.2 mph 9.2 mph 86 % 0.00 in
19:16 62.0 °F 58.1 °F 29.49 in SSE 8.5 mph 12.7 mph 87 % 0.00 in
19:21 61.9 °F 58.0 °F 29.48 in SSW 6.0 mph 9.2 mph 87 % 0.00 in
19:26 61.7 °F 57.8 °F 29.48 in South 7.8 mph 11.5 mph 87 % 0.00 in
19:31 61.6 °F 57.7 °F 29.48 in South 8.7 mph 12.0 mph 87 % 0.00 in
19:36 61.4 °F 57.5 °F 29.54 in West 9.1 mph 16.1 mph 87 % 0.00 in
19:41 61.4 °F 57.8 °F 29.53 in WSW 4.9 mph 10.4 mph 88 % 0.00 in
19:46 61.3 °F 58.0 °F 29.53 in SW 3.8 mph 11.5 mph 89 % 0.00 in
19:51 61.2 °F 58.2 °F 29.52 in WSW 3.8 mph 8.1 mph 90 % 0.00 in
19:56 61.0 °F 58.0 °F 29.52 in SW 1.7 mph 4.0 mph 90 % 0.00 in
20:02 61.0 °F 58.0 °F 29.52 in SSW 2.6 mph 4.0 mph 90 % 0.00 in
20:07 60.9 °F 57.9 °F 29.52 in SSW 1.9 mph 4.6 mph 90 % 0.00 in
20:12 60.7 °F 58.1 °F 29.52 in WSW 1.3 mph 3.5 mph 91 % 0.00 in
20:17 60.7 °F 58.1 °F 29.52 in Calm     91 % 0.00 in
20:27 60.4 °F 57.8 °F 29.52 in South 4.2 mph 6.0 mph 91 % 0.00 in
20:37 60.3 °F 58.0 °F 29.53 in South 3.4 mph 5.8 mph 92 % 0.00 in
20:42 60.2 °F 57.9 °F 29.53 in SSW 0.7 mph 2.3 mph 92 % 0.00 in
20:47 60.2 °F 57.9 °F 29.53 in SSW 2.2 mph 3.5 mph 92 % 0.00 in
20:53 60.2 °F 57.9 °F 29.54 in SSW 2.7 mph 3.5 mph 92 % 0.00 in
20:58 60.2 °F 57.9 °F 29.54 in SW 2.6 mph 4.6 mph 92 % 0.00 in
21:08 60.3 °F 58.3 °F 29.54 in SW 2.1 mph 4.6 mph 93 % 0.00 in
21:13 60.3 °F 58.3 °F 29.55 in SW 1.8 mph 3.5 mph 93 % 0.00 in
21:18 60.4 °F 58.4 °F 29.55 in SSW 1.7 mph 5.0 mph 93 % 0.00 in
21:23 60.5 °F 58.5 °F 29.56 in South 2.4 mph 4.0 mph 93 % 0.00 in
21:28 60.5 °F 58.5 °F 29.56 in WSW 3.6 mph 5.0 mph 93 % 0.00 in
21:33 60.6 °F 58.3 °F 29.56 in SSW 2.1 mph 5.0 mph 92 % 0.00 in
21:39 60.7 °F 58.4 °F 29.56 in SW 2.9 mph 4.0 mph 92 % 0.00 in
21:44 60.7 °F 58.4 °F 29.56 in SSW 3.9 mph 8.0 mph 92 % 0.00 in
21:49 60.8 °F 58.5 °F 29.56 in SW 2.3 mph 4.6 mph 92 % 0.00 in
21:54 60.8 °F 58.2 °F 29.56 in South 2.8 mph 4.0 mph 91 % 0.00 in
21:59 60.8 °F 58.2 °F 29.56 in SW 4.2 mph 6.9 mph 91 % 0.00 in
22:04 60.8 °F 58.2 °F 29.56 in West 2.1 mph 3.5 mph 91 % 0.00 in
22:09 60.8 °F 58.2 °F 29.56 in West 0.8 mph 2.3 mph 91 % 0.00 in
22:14 60.8 °F 58.2 °F 29.56 in SW 3.4 mph 5.8 mph 91 % 0.00 in
22:19 60.7 °F 58.4 °F 29.55 in SW 2.2 mph 5.8 mph 92 % 0.00 in
22:24 60.8 °F 58.5 °F 29.55 in SW 3.1 mph 4.6 mph 92 % 0.00 in
22:30 60.9 °F 58.6 °F 29.56 in SSW 3.9 mph 5.8 mph 92 % 0.00 in
22:35 61.0 °F 59.0 °F 29.56 in SSW 3.4 mph 3.5 mph 93 % 0.00 in
22:40 61.2 °F 59.2 °F 29.56 in SW 4.2 mph 8.1 mph 93 % 0.00 in
22:45 61.4 °F 59.1 °F 29.56 in SW 3.4 mph 5.8 mph 92 % 0.00 in
22:50 61.6 °F 59.3 °F 29.57 in WSW 5.7 mph 6.9 mph 92 % 0.00 in
22:55 61.7 °F 59.0 °F 29.58 in WSW 4.6 mph 6.9 mph 91 % 0.00 in
23:00 61.9 °F 59.2 °F 29.60 in NNW 8.8 mph 12.7 mph 91 % 0.00 in
23:05 61.6 °F 57.4 °F 29.61 in NNE 5.2 mph 9.2 mph 86 % 0.00 in
23:10 60.8 °F 55.3 °F 29.61 in North 7.0 mph 12.7 mph 82 % 0.00 in
23:15 59.8 °F 52.9 °F 29.62 in NNW 5.6 mph 13.8 mph 78 % 0.00 in
23:21 59.0 °F 51.4 °F 29.63 in NNW 3.9 mph 11.5 mph 76 % 0.00 in
23:26 58.3 °F 50.4 °F 29.63 in North 7.0 mph 15.0 mph 75 % 0.00 in
23:31 57.7 °F 49.8 °F 29.63 in NNW 3.5 mph 11.5 mph 75 % 0.00 in
23:36 57.1 °F 49.2 °F 29.63 in NNW 5.8 mph 10.4 mph 75 % 0.00 in
23:41 56.7 °F 49.2 °F 29.62 in NNW 4.8 mph 8.1 mph 76 % 0.00 in
23:46 56.4 °F 49.3 °F 29.62 in North 5.6 mph 10.4 mph 77 % 0.00 in
23:51 56.3 °F 48.8 °F 29.62 in NNE 4.0 mph 9.2 mph 76 % 0.00 in
23:56 56.2 °F 48.7 °F 29.62 in North 3.7 mph 6.9 mph 76 % 0.00 in
Crab Meadow Weather
Compliments of Weather Underground - 3 mb

Script developed by  Jim McMurry - jmcmurry@mwt.net Adapted for the template by  Wim van der Kuil - Leuven-Template.eu

Weather Terms: Dew Point - A measure of atmospheric moisture. It is the temperature to which air must be cooled in order to reach saturation (assuming pressure and moisture content are constant).